Página principal
METAR-TAF:

METAR-TAF

Aeroportos :

Bojnourd, Irão

latitude: 37-28N, longitude: 057-20E, altura: 1074 m

Observação actual do tempo

O boletim foi feito há 1 hora e 3 minutos, às 12:00 UTC
Vento 6 kt de nordeste
Temperatura 7°C
Humidade 76%
Pressão 1019 hPa
Visibilidade: 6000 m
Poucas nuvensa uma altura de 2500 ft
Encobertoa uma altura de 8000 ft
chuva fraca

METAR: OIMN 181200Z 04006KT 6000 -RA FEW025 OVC080 07/03 Q1019

Hora: 16:33 (13:03 UTC)


TAF: em falta

Observações e previsões do tempo de mais de 4000 aeroportos (mensagens METAR e TAF).

As estações disponíveis são os pontos amarelos e vermelhos sobre o mapa.

Mova o rato sobre o mapa para ver o nome da estação.

Depois clique no ponto para visualizar as observações e previsões meteorológicas.

Para alterar o mapa : clique nos botões verdes com uma cruz preta para aumentar o zoom; no botão verde com uma pitada de zoom; ou nas setas verdes para mapas adjacentes.


METAR-TAF: